Tiempo atmosférico en la estación meteorológica de Vitigudino, Salamanca (769 m.)



Fecha
DESCASC
Temp. máxima en grados centígrados (hora)
DESCASC
Temp. mínima en grados centígrados (hora)
DESCASC
Temp. media en grados centígrados
DESCASC
Racha de viento máxima en m/sg (hora)
DESCASC
Velocidad máxima media en intervalos de 10 minutos(hora)
DESCASC
Precipitaciones diarias en mm
DESCASC
Precipitaciones de 00:00 a 06:00 en mm
DESCASC
Precipitaciones de 06:00 a 12:00 en mm
DESCASC
Precipitaciones de 12:00 a 18:00 en mm
DESCASC
Precipitaciones de 18:00 a 24:00 en mm
DESCASC
19-09-2019 29.1 (16:40) 13.2 (07:50) 21.2 6.39 (13:30) 4.17 (10:50) 0 0 0 0 0
18-09-2019 27.9 (16:40) 12.3 (08:10) 20.1 5.56 (10:00) 3.89 (08:50) 0.2 0 0.2 0 0
17-09-2019 26.6 (13:40) 15.1 (00:00) 20.9 9.17 (17:00) 5 (16:40) 3.6 0 0.2 2.6 0.8
16-09-2019 24.3 (14:40) 14.4 (00:00) 19.3 9.72 (16:00) 6.94 (16:00) 11.6 0 0 11.6 0
15-09-2019 25.8 (17:20) 14.1 (00:00) 19.9 12.5 (19:20) 5.83 (12:50) 5.4 0 3.2 0 2.2
14-09-2019 26.9 (15:30) 13.3 (00:00) 20.1 11.67 (13:30) 6.94 (11:50) 0 0 0 0 0
13-09-2019 29.3 (15:30) 13.9 (00:00) 21.6 14.17 (15:50) 9.17 (17:00) 0 0 0 0 0
12-09-2019 29.3 (17:40) 9.9 (00:00) 19.6 10.28 (14:50) 6.39 (09:40) 0 0 0 0 0
11-09-2019 24.7 (17:20) 8 (00:00) 16.4 15.56 (11:40) 9.72 (12:00) 0 0 0 0 0
10-09-2019 23.2 (17:00) 8.1 (07:40) 15.7 9.72 (18:30) 6.11 (06:00) 0 0 0 0 0
09-09-2019 29.7 (15:10) 10.2 (07:50) 20 11.67 (18:30) 7.78 (18:00) 0 0 0 0 0
08-09-2019 28.9 (18:00) 9.4 (00:00) 19.1 8.33 (08:10) 5.83 (08:10) 0 0 0 0 0
07-09-2019 27.2 (17:10) 8 (00:00) 17.6 11.67 (02:50) 7.22 (02:50) 0 0 0 0 0
06-09-2019 25.7 (17:00) 9.4 (00:00) 17.6 13.06 (09:50) 8.61 (09:50) 0 0 0 0 0
05-09-2019 26 (15:40) 13.4 (00:00) 19.7 15.83 (11:00) 10.28 (11:00) 0 0 0 0 0
04-09-2019 34.1 (16:40) 13.2 (00:00) 23.6 10.28 (23:59) 7.22 (23:59) 0 0 0 0 0
03-09-2019 33.3 (18:10) 10.8 (00:00) 22 8.89 (01:20) 6.11 (02:30) 0 0 0 0 0
02-09-2019 30.4 (17:20) 12.3 (00:00) 21.3 13.33 (02:50) 8.89 (02:50) 0 0 0 0 0
01-09-2019 32.3 (17:10) 14.2 (00:00) 23.2 10.83 (23:59) 7.22 (23:40) 0 0 0 0 0
31-08-2019 36.1 (17:00) 15.7 (00:00) 25.9 11.11 (18:20) 7.22 (18:20) 0 0 0 0 0
30-08-2019 36.3 (16:10) 16.1 (00:00) 26.2 10.56 (17:10) 6.39 (15:30) 0 0 0 0 0
29-08-2019 35.3 (16:20) 15.8 (00:00) 25.5 9.17 (17:30) 6.39 (17:50) 0 0 0 0 0
28-08-2019 32.9 (16:50) 14.9 (00:00) 23.9 8.61 (19:30) 5 (17:40) 0 0 0 0 0
27-08-2019 29.8 (18:20) 13.1 (00:00) 21.4 9.17 (14:40) 3.61 (18:00) 0 0 0 0 0
26-08-2019 26.2 (18:20) 15.3 (00:00) 20.8 15.83 (09:10) 9.72 (08:00) 9.6 7.2 2.2 0.2 0
25-08-2019 34.3 (16:00) 16.2 (00:00) 25.3 10.28 (21:50) 6.67 (21:50) 9.8 0 0 3 6.8
24-08-2019 37.4 (17:30) 15.9 (00:00) 26.7 9.72 (17:30) 5.56 (18:00) -- -- 0 0 0
23-08-2019 35.7 (16:50) 15.1 (00:00) 25.4 6.67 (07:00) 4.72 (07:50) 0 0 0 0 0
22-08-2019 33.2 (16:50) 14.1 (00:00) 23.7 8.33 (14:20) 5.28 (07:30) 0 0 0 0 0
21-08-2019 32.6 (18:10) 13.1 (00:00) 22.8 8.06 (03:40) 5.56 (03:30) 0 0 0 0 0

Gráficas

Temp. máximas Temp. mínimas Temp. medias Precipitaciones Rachas de viento máximas Velocidades máximas media en intervalos de 10 minutos

Datos horarios

Fecha y hora oficial Temperatura (ºC) Velocidad del viento (km/h) Dirección del viento Racha (km/h) Dirección de racha Precipitación (mm) Presión (hPa) Tendencia (hPa) Humedad (%)
2019-09-19 23:00:00 20.3 5 Sudoeste 21 Este 0 928.3 1 54
2019-09-19 22:00:00 20.8 13 Este 22 Este 0 928.2 1.1 53
2019-09-19 21:00:00 23 10 Este 18 Sudeste 0 927.6 0.3 42
2019-09-19 20:00:00 25 6 Este 9 Este 0 927.3 -0.4 39
2019-09-19 19:00:00 26.9 3 Sudeste 15 Este 0 927.1 -1 30
2019-09-19 18:00:00 28.4 7 Sudeste 13 Este 0 927.3 -1.5 28
2019-09-19 17:00:00 27.8 6 Este 13 Este 0 927.7 -1.7 28
2019-09-19 16:00:00 28.2 6 Sudeste 15 Sur 0 928.1 -1.7 27
2019-09-19 15:00:00 27.9 7 Nordeste 15 Este 0 928.8 -1.3 32
2019-09-19 14:00:00 27.4 10 Este 23 Nordeste 0 929.4 -0.7 35
2019-09-19 13:00:00 25.7 11 Este 21 Este 0 929.8 -0.1 40
2019-09-19 12:00:00 24.2 14 Este 21 Nordeste 0 930.1 0.4 48
2019-09-19 11:00:00 21.3 13 Nordeste 22 Nordeste 0 930.1 0.8 61
2019-09-19 10:00:00 17.5 14 Nordeste 21 Este 0 929.9 0.8 74
2019-09-19 09:00:00 14.4 10 Este 17 Nordeste 0 929.7 0.6 82
2019-09-19 08:00:00 13.2 10 Nordeste 14 Este 0 929.3 0.1 83
2019-09-19 07:00:00 14 9 Nordeste 19 Nordeste 0 929.1 -0.3 79
2019-09-19 06:00:00 14 7 Este 13 Nordeste 0 929.1 -0.6 79
2019-09-19 05:00:00 14.4 8 Este 13 Nordeste 0 929.2 -0.5 78
2019-09-19 04:00:00 14.5 7 Nordeste 10 Nordeste 0 929.4 -0.4 78
2019-09-19 03:00:00 15.6 4 Nordeste 6 Nordeste 0 929.7 -0.1 73
2019-09-19 02:00:00 16.6 5 Nordeste 9 Este 0 929.7 0 68
2019-09-19 01:00:00 18 5 Este 13 Este 0 929.8 0.3 62
2019-09-19 00:00:00 18.5 7 Sudeste 12 Sudeste 0 929.8 0.7 60
2019-09-18 23:00:00 19 6 Este 14 Este 0 929.7 0.9 56
2019-09-18 22:00:00 19.8 6 Este 11 Este 0 929.5 0.8 52
2019-09-18 21:00:00 21.6 6 Nordeste 9 Nordeste 0 929.1 0.5 48
2019-09-18 20:00:00 24.3 7 Nordeste 13 Nordeste 0 928.8 0 39
2019-09-18 19:00:00 26.3 5 Nordeste 13 Este 0 928.7 -0.5 31
2019-09-18 18:00:00 27.8 3 Noroeste 14 Nordeste 0 928.6 -1 30
2019-09-18 17:00:00 27.5 5 Nordeste 17 Nordeste 0 928.8 -1.2 30
2019-09-18 16:00:00 26.5 6 Sudeste 16 Nordeste 0 929.2 -0.9 31
2019-09-18 15:00:00 26.4 5 Este 16 Nordeste 0 929.6 -0.5 34
2019-09-18 14:00:00 25.7 4 Sur 14 Sur 0 930 0.2 36
2019-09-18 13:00:00 24.1 4 Oeste 13 Este 0 930.1 0.5 46
2019-09-18 12:00:00 21.9 8 Este 14 Este 0 930.1 0.9 54
2019-09-18 11:00:00 19.9 10 Este 19 Este 0 929.8 0.9 64
2019-09-18 10:00:00 16.9 12 Este 20 Este 0 929.6 1 76
2019-09-18 09:00:00 13.5 14 Este 19 Este 0.2 929.2 0.6 89
2019-09-18 08:00:00 12.4 12 Nordeste 19 Nordeste 0 928.9 0.4 89
2019-09-18 07:00:00 12.6 12 Nordeste 16 Nordeste 0 928.6 0.1 88
2019-09-18 06:00:00 12.8 3 Nordeste 11 Este 0 928.6 -0.3 87
2019-09-18 05:00:00 12.9 10 Nordeste 18 Nordeste 0 928.5 -0.4 86
2019-09-18 04:00:00 13.1 6 Este 13 Este 0 928.5 -0.3 84
2019-09-18 03:00:00 13.9 7 Este 14 Nordeste 0 928.9 -0.4 82
2019-09-18 02:00:00 14.5 9 Nordeste 16 Nordeste 0 928.9 -0.7 81
2019-09-18 01:00:00 14.9 7 Nordeste 18 Nordeste 0 928.8 -0.9 79
2019-09-18 00:00:00 15.4 13 Nordeste 19 Nordeste 0 929.3 0.7 77
2019-09-17 23:00:00 15.5 10 Nordeste 17 Nordeste 0 929.6 2 74
2019-09-17 22:00:00 16 11 Nordeste 25 Este 0 929.7 2.1 71
2019-09-17 21:00:00 16.5 8 Sudoeste 17 Sudoeste 0 928.6 -1.6 73
2019-09-15 18:00:00 24.2 14 Nordeste 26 Nordeste 0 930.4 -1.3 46
2019-09-15 17:00:00 25.4 12 Nordeste 27 Nordeste 0 930.6 -1.8 41
2019-09-15 16:00:00 23.2 10 Nordeste 27 Nordeste 0 931.2 -1.3 51
2019-09-15 15:00:00 23.9 15 Este 32 Nordeste 0 931.7 -0.9 52
2019-09-15 14:00:00 20.6 17 Nordeste 31 Nordeste 0 932.4 -0.3 65
2019-09-15 13:00:00 21.3 21 Nordeste 32 Nordeste 0 932.5 0 64
2019-09-15 12:00:00 19 16 Nordeste 24 Nordeste 0 932.6 0.6 76
2019-09-15 11:00:00 17.4 11 Nordeste 26 Nordeste 0 932.7 0.4 83
2019-09-15 10:00:00 17 14 Nordeste 24 Nordeste 0.2 932.5 0.4 89
2019-09-15 09:00:00 14.8 12 Nordeste 23 Nordeste 2.6 932 0 92
2019-09-15 08:00:00 14.5 13 Nordeste 21 Este 0.4 932.3 -0.1 88
2019-09-15 07:00:00 14.1 8 Nordeste 13 Este 0 932.1 -0.6 86
2019-09-15 06:00:00 14.6 7 Nordeste 12 Nordeste 0 932 -0.8 85
2019-09-15 05:00:00 15.5 6 Nordeste 13 Nordeste 0 932.4 -0.9 82
2019-09-15 04:00:00 15.3 4 Nordeste 12 Nordeste 0 932.7 -0.8 79
2019-09-15 03:00:00 16.4 6 Nordeste 16 Este 0 932.8 -0.6 73
2019-09-15 02:00:00 16.5 7 Nordeste 15 Este 0 933.3 0 66
2019-09-15 01:00:00 16.6 5 Nordeste 8 Oeste 0 933.5 0.5 63
2019-09-15 00:00:00 17.5 4 Sur 15 Este 0 933.4 0.7 59
2019-09-14 23:00:00 17.1 11 Este 17 Este 0 933.3 1 61
2019-09-14 22:00:00 18.3 10 Este 19 Este 0 933 0.9 55
2019-09-14 21:00:00 19.9 13 Este 27 Este 0 932.7 0.8 48
2019-09-14 20:00:00 21.8 22 Este 34 Este 0 932.3 0.4 41
2019-09-14 19:00:00 22.3 17 Este 38 Este 0 932.1 0.2 41
2019-09-14 18:00:00 23 22 Este 38 Este 0 931.9 -0.7 34
2019-09-14 17:00:00 23.5 22 Este 42 Este 0 931.9 -1.4 34
2019-09-14 16:00:00 26.4 18 Este 36 Este 0 931.9 -2 29
2019-09-14 15:00:00 26.1 22 Este 37 Este 0 932.6 -1.9 30
2019-09-14 14:00:00 26.7 23 Este 42 Nordeste 0 933.3 -1.4 30
2019-09-14 13:00:00 24.9 22 Nordeste 35 Nordeste 0 933.9 -1.2 39
2019-09-14 12:00:00 22.6 22 Este 42 Este 0 934.5 -0.2 46
2019-09-14 11:00:00 20.5 18 Nordeste 27 Nordeste 0 934.7 0.1 56
2019-09-14 10:00:00 17.4 19 Nordeste 28 Nordeste 0 935.1 0.7 67
2019-09-14 09:00:00 14.6 13 Este 21 Nordeste 0 934.7 0.3 77
2019-09-14 08:00:00 13.6 15 Este 23 Nordeste 0 934.6 -0.1 80
2019-09-14 07:00:00 13.4 14 Nordeste 23 Nordeste 0 934.4 -0.7 80
2019-09-14 06:00:00 13.8 13 Nordeste 20 Este 0 934.4 -1.6 79
2019-09-14 05:00:00 13.7 14 Este 20 Este 0 934.7 -1.2 80
2019-09-14 04:00:00 13.9 12 Nordeste 21 Nordeste 0 935.1 -0.8 79
2019-09-14 03:00:00 14.3 9 Nordeste 19 Nordeste 0 936 0.1 76
2019-09-14 02:00:00 15 10 Nordeste 22 Este 0 935.9 0.6 74
2019-09-14 01:00:00 16.1 15 Nordeste 28 Este 0 935.9 0.6 68
2019-09-14 00:00:00 16.3 18 Este 27 Este 0 935.9 1.2 67
2019-09-13 23:00:00 16.6 16 Este 30 Este 0 935.3 0.5 63
2019-09-13 22:00:00 17.5 22 Este 32 Este 0 935.3 0.8 59
2019-09-13 21:00:00 18.6 18 Este 28 Este 0 934.7 0.5 55
2019-09-13 20:00:00 19.7 21 Este 42 Este 0 934.8 0.9 50
2019-09-13 19:00:00 23.3 25 Este 45 Este 0 934.5 0.3 32
2019-09-13 18:00:00 25.4 26 Este 48 Nordeste 0 934.2 -0.7 24
2019-09-13 17:00:00 27.8 33 Este 50 Este 0 933.9 -1.6 19
2019-09-13 16:00:00 28.3 27 Nordeste 51 Nordeste 0 934.2 -1.8 17
2019-09-13 15:00:00 28.7 22 Este 42 Nordeste 0 934.9 -1.5 20
2019-09-13 14:00:00 27.3 21 Este 42 Este 0 935.5 -1.8 25
2019-09-13 13:00:00 27 23 Nordeste 40 Nordeste 0 936 -1.4 28
2019-09-13 12:00:00 24.8 23 Nordeste 33 Nordeste 0 936.4 -0.8 33
2019-09-13 11:00:00 21.9 22 Nordeste 35 Nordeste 0 937.3 0.2 43
2019-09-13 10:00:00 18.5 19 Nordeste 28 Nordeste 0 937.4 0.2 56
2019-09-13 09:00:00 15.3 14 Nordeste 23 Nordeste 0 937.2 0.3 69
2019-09-13 08:00:00 14.1 14 Nordeste 25 Nordeste 0 937.1 -0.1 71
2019-09-13 07:00:00 14 11 Nordeste 19 Nordeste 0 937.2 -0.6 65
2019-09-13 06:00:00 14.5 12 Nordeste 18 Nordeste 0 936.9 -0.7 62
2019-09-13 05:00:00 15.5 12 Nordeste 19 Nordeste 0 937.2 -0.4 56
2019-09-13 04:00:00 15.4 8 Nordeste 15 Nordeste 0 937.8 0.2 54
2019-09-13 03:00:00 16.4 9 Nordeste 17 Nordeste 0 937.6 0.1 51
2019-09-13 02:00:00 17 10 Nordeste 14 Nordeste 0 937.6 0 49
2019-09-13 01:00:00 17.9 9 Nordeste 17 Este 0 937.6 0.6 46
2019-09-13 00:00:00 18.7 10 Nordeste 17 Nordeste 0 937.5 0.5 43
2019-09-12 23:00:00 19.8 10 Nordeste 15 Nordeste 0 937.6 0.4 39
2019-09-12 22:00:00 21.4 10 Norte 14 Norte 0 937 -0.2 35
2019-09-12 21:00:00 23.1 7 Norte 17 Nordeste 0 937 -0.3 31
2019-09-12 20:00:00 25.9 13 Nordeste 30 Este 0 937.2 -0.1 26
2019-09-12 19:00:00 27.9 19 Nordeste 32 Nordeste 0 937.2 -0.8 24
2019-09-12 18:00:00 28.9 17 Este 33 Nordeste 0 937.3 -1.4 23
2019-09-12 17:00:00 28.3 16 Nordeste 32 Norte 0 937.3 -2.1 24
2019-09-12 16:00:00 28.1 19 Nordeste 35 Nordeste 0 938 -2 24
2019-09-12 15:00:00 26.7 20 Nordeste 37 Nordeste 0 938.7 -1.6 26
2019-09-12 14:00:00 24.6 17 Nordeste 35 Nordeste 0 939.4 -0.7 31
2019-09-12 13:00:00 23.3 18 Nordeste 30 Este 0 940 0.5 34
2019-09-12 12:00:00 21.1 16 Nordeste 27 Nordeste 0 940.3 0.8 42
2019-09-12 11:00:00 17.7 19 Nordeste 31 Nordeste 0 940.1 1.2 52
2019-09-12 10:00:00 14.5 22 Nordeste 32 Nordeste 0 939.5 1 63
2019-09-12 09:00:00 11.3 15 Nordeste 26 Nordeste 0 939.5 1.2 77
2019-09-12 08:00:00 9.9 17 Nordeste 25 Nordeste 0 938.9 0.7 82
2019-09-12 07:00:00 10.2 15 Nordeste 26 Nordeste 0 938.5 0.6 82
2019-09-12 06:00:00 10.5 18 Nordeste 26 Nordeste 0 938.3 0.2 82
2019-09-12 05:00:00 11 15 Nordeste 28 Nordeste 0 938.2 0.1 78
2019-09-12 04:00:00 11.7 17 Nordeste 29 Nordeste 0 937.9 0.1 74
2019-09-12 03:00:00 12.5 19 Nordeste 31 Nordeste 0 938.1 0.1 69
2019-09-12 02:00:00 13.4 16 Nordeste 31 Nordeste 0 938.1 0.5 63
2019-09-12 01:00:00 13.9 14 Nordeste 19 Nordeste 0 937.8 1 59
2019-09-12 00:00:00 14.9 14 Este 24 Este 0 938 2.1 55
2019-09-11 23:00:00 16.1 20 Nordeste 28 Nordeste 0 937.6 2.2 51
2019-09-11 22:00:00 17.2 18 Nordeste 30 Nordeste 0 936.8 1.5 47
2019-09-11 21:00:00 18.4 17 Nordeste 34 Nordeste 0 935.9 0.8 41
2019-09-11 20:00:00 20.4 22 Nordeste 40 Nordeste 0 935.4 0 34
2019-09-11 19:00:00 22.4 27 Nordeste 45 Nordeste 0 935.3 0 31
2019-09-11 18:00:00 23.4 29 Nordeste 48 Nordeste 0 935.1 -0.8 29
2019-09-11 17:00:00 24.5 26 Nordeste 45 Nordeste 0 935.4 -0.6 27
2019-09-11 16:00:00 23.6 28 Nordeste 44 Nordeste 0 935.3 -1.1 29
2019-09-11 15:00:00 23.4 32 Nordeste 48 Nordeste 0 935.9 -0.6 29
2019-09-11 14:00:00 22.7 30 Nordeste 49 Nordeste 0 936 -0.3 29
2019-09-11 13:00:00 21.2 31 Nordeste 53 Nordeste 0 936.4 0.3 32
2019-09-11 12:00:00 19.8 35 Nordeste 56 Nordeste 0 936.5 0.7 33
2019-09-11 11:00:00 17.8 28 Nordeste 45 Nordeste 0 936.3 0.9 41
2019-09-11 10:00:00 15.3 17 Nordeste 30 Nordeste 0 936.1 1.1 55
2019-09-11 09:00:00 11.3 16 Nordeste 22 Nordeste 0 935.8 0.8 69
2019-09-11 08:00:00 9.1 14 Nordeste 21 Nordeste 0 935.4 0.5 76
2019-09-11 07:00:00 8.5 14 Nordeste 20 Nordeste 0 935 0.5 78
2019-09-11 06:00:00 8 9 Nordeste 16 Nordeste 0 935 0.3 77
2019-09-11 05:00:00 8.9 10 Nordeste 17 Nordeste 0 934.9 0.4 71
2019-09-11 04:00:00 9.3 11 Nordeste 18 Este 0 934.5 0.1 69
2019-09-11 03:00:00 9.8 9 Nordeste 14 Este 0 934.7 0.5 66
2019-09-11 02:00:00 10.2 9 Nordeste 14 Nordeste 0 934.5 1.1 64
2019-09-11 01:00:00 11.5 9 Norte 18 Nordeste 0 934.4 1.7 58
2019-09-11 00:00:00 12.6 4 Norte 15 Nordeste 0 934.2 2.7 52
2019-09-10 23:00:00 14.4 8 Norte 23 Nordeste 0 933.4 2.7 45
2019-09-10 22:00:00 15.4 13 Nordeste 22 Nordeste 0 932.7 2.4 40
2019-09-10 21:00:00 17.4 16 Nordeste 28 Nordeste 0 931.5 1.2 32
2019-09-10 20:00:00 19.7 14 Norte 31 Norte 0 930.7 0.2 26
2019-09-10 19:00:00 21.9 17 Noroeste 35 Oeste 0 930.3 -0.6 22
2019-09-10 18:00:00 22.1 20 Noroeste 31 Noroeste 0 930.3 -0.7 22
2019-09-10 17:00:00 23.2 17 Noroeste 32 Norte 0 930.5 -1.1 19
2019-09-10 16:00:00 22.7 14 Noroeste 34 Noroeste 0 930.9 -0.9 21
2019-09-10 15:00:00 21.1 15 Noroeste 33 Norte 0 931 -0.5 23
2019-09-10 14:00:00 20.1 14 Noroeste 30 Noroeste 0 931.6 0.2 26
2019-09-10 13:00:00 18.7 13 Norte 29 Norte 0 931.8 0.9 30
2019-09-10 12:00:00 16.9 12 Norte 27 Norte 0 931.5 1 34
2019-09-10 11:00:00 15 17 Norte 28 Norte 0 931.4 1.3 42
2019-09-10 10:00:00 12.7 15 Norte 23 Norte 0 930.9 1.5 51
2019-09-10 09:00:00 9.6 9 Noroeste 19 Noroeste 0 930.5 1.6 68
2019-09-10 08:00:00 8.1 12 Noroeste 18 Noroeste 0 930.1 1.3 73
2019-09-10 07:00:00 9.2 12 Noroeste 30 Noroeste 0 929.4 0.4 71
2019-09-10 06:00:00 11.1 22 Noroeste 33 Noroeste 0 928.9 -0.6 69
2019-09-10 05:00:00 12.1 20 Noroeste 29 Noroeste 0 928.8 -0.9 74
2019-09-10 04:00:00 12.5 15 Noroeste 23 Noroeste 0 929 -0.6 79
2019-09-10 03:00:00 12.3 13 Noroeste 22 Noroeste 0 929.5 0 72
2019-09-10 02:00:00 13.2 15 Noroeste 26 Noroeste 0 929.7 0.6 65
2019-09-10 01:00:00 14 14 Noroeste 26 Noroeste 0 929.6 1.1 56
2019-09-10 00:00:00 15.5 13 Noroeste 26 Noroeste 0 929.5 1.6 53
2019-09-09 23:00:00 16.8 18 Noroeste 31 Noroeste 0 929.1 1.5 46
2019-09-09 22:00:00 18.3 19 Noroeste 35 Noroeste 0 928.5 0.9 46
2019-09-09 21:00:00 20.4 17 Noroeste 31 Noroeste 0 927.9 0.3 33
2019-09-09 20:00:00 22.9 22 Noroeste 36 Oeste 0 927.6 0.3 27
2019-09-09 19:00:00 24.8 22 Oeste 42 Oeste 0 927.6 -0.3 20
2019-09-09 18:00:00 26.1 28 Oeste 41 Oeste 0 927.6 -1 15
2019-09-09 17:00:00 27 22 Oeste 39 Oeste 0 927.3 -1.9 18
2019-09-09 16:00:00 28.1 24 Oeste 38 Oeste 0 927.9 -1.7 15
2019-09-09 15:00:00 29.6 23 Oeste 38 Oeste 0 928.6 -1.2 14
2019-09-09 14:00:00 28.5 21 Oeste 35 Oeste 0 929.2 -0.4 15
2019-09-09 13:00:00 27.2 18 Oeste 29 Oeste 0 929.6 0 22
2019-09-09 12:00:00 24.8 17 Oeste 25 Oeste 0 929.8 0.2 28
2019-09-09 11:00:00 20.2 9 Sudoeste 15 Oeste 0 929.6 0.3 37
2019-09-09 10:00:00 16.9 6 Sudoeste 10 Sudoeste 0 929.6 0.7 44
2019-09-09 09:00:00 12.7 4 Sur 8 Sur 0 929.6 0.5 56
2019-09-09 08:00:00 10.5 4 Sur 7 Sur 0 929.3 -0.2 60
2019-09-09 07:00:00 10.4 5 Sur 7 Sur 0 928.9 -1 58
2019-09-09 06:00:00 11.2 2 Sudoeste 10 Sur 0 929.1 -0.8 54
2019-09-09 05:00:00 11.8 5 Sur 7 Sur 0 929.5 -0.6 51
2019-09-09 04:00:00 12.6 2 Sur 6 Sur 0 929.9 -0.2 48
2019-09-09 03:00:00 12.8 4 Sur 7 Sur 0 929.9 -0.4 48
2019-09-09 02:00:00 13.8 5 Sur 8 Sur 0 930.1 -0.1 43
2019-09-09 01:00:00 14.9 0 Calma 3 Sudoeste 0 930.1 -0.2 39
2019-09-09 00:00:00 16.3 3 Noroeste 7 Noroeste 0 930.3 0.5 32
2019-09-08 23:00:00 17.4 4 Noroeste 10 Noroeste 0 930.2 0.7 32
2019-09-08 22:00:00 19.1 9 Oeste 14 Oeste 0 930.3 1.1 30
2019-09-08 21:00:00 22.5 7 Noroeste 9 Noroeste 0 929.8 0.7 24
2019-09-08 20:00:00 25.7 5 Noroeste 13 Noroeste 0 929.5 0.2 19
2019-09-08 19:00:00 27.7 7 Noroeste 19 Noroeste 0 929.2 -0.7 16
2019-09-08 18:00:00 28 8 Norte 17 Norte 0 929.1 -1.4 15
2019-09-08 17:00:00 28.6 5 Este 17 Este 0 929.3 -1.5 18
2019-09-08 16:00:00 27.6 9 Noroeste 18 Noroeste 0 929.9 -1.2 18
2019-09-08 15:00:00 26.9 10 Nordeste 21 Nordeste 0 930.5 -1.1 24
2019-09-08 14:00:00 25.4 8 Este 23 Nordeste 0 930.8 -0.6 27
2019-09-08 13:00:00 23.4 12 Nordeste 25 Nordeste 0 931.1 -0.2 32
2019-09-08 12:00:00 20.4 12 Nordeste 24 Nordeste 0 931.6 0.5 41
2019-09-08 11:00:00 18.2 13 Nordeste 26 Nordeste 0 931.4 0.8 49
2019-09-08 10:00:00 15 14 Este 24 Nordeste 0 931.3 0.8 61
2019-09-08 09:00:00 11.3 16 Nordeste 30 Nordeste 0 931.1 0.6 80
2019-09-08 08:00:00 9.5 19 Nordeste 27 Nordeste 0 930.6 0.1 86
2019-09-08 07:00:00 9.9 19 Nordeste 26 Nordeste 0 930.5 0 81
2019-09-08 06:00:00 10.5 15 Nordeste 24 Nordeste 0 930.5 -0.3 76
2019-09-08 05:00:00 11.3 14 Nordeste 27 Nordeste 0 930.5 -0.6 70
2019-09-08 04:00:00 12.3 19 Nordeste 28 Nordeste 0 930.5 -0.6 63
2019-09-08 03:00:00 13.3 19 Nordeste 26 Nordeste 0 930.8 -0.2 58
2019-09-08 02:00:00 13.8 18 Nordeste 25 Nordeste 0 931.1 0.3 48
2019-09-08 01:00:00 14.5 17 Nordeste 24 Nordeste 0 931.1 0.6 37
2019-09-08 00:00:00 15.4 14 Nordeste 20 Nordeste 0 931 0.9 32
2019-09-07 23:00:00 16.4 11 Nordeste 18 Nordeste 0 930.8 0.7 29
2019-09-07 22:00:00 18.5 13 Nordeste 19 Nordeste 0 930.5 0.4 24
2019-09-07 21:00:00 20.5 9 Nordeste 18 Nordeste 0 930.1 -0.1 21
2019-09-07 20:00:00 23.5 12 Nordeste 21 Nordeste 0 930.1 -0.5 19
2019-09-07 19:00:00 25.1 16 Nordeste 28 Nordeste 0 930.1 -0.9 19
2019-09-07 18:00:00 26.6 14 Nordeste 29 Nordeste 0 930.2 -1.3 19
2019-09-07 17:00:00 27 16 Nordeste 31 Nordeste 0 930.6 -1.3 19
2019-09-07 16:00:00 25.9 18 Nordeste 35 Norte 0 931 -1.2 22
2019-09-07 15:00:00 24.6 18 Nordeste 35 Nordeste 0 931.5 -1 26
2019-09-07 14:00:00 23.3 16 Nordeste 32 Nordeste 0 931.9 -1 28
2019-09-07 13:00:00 21.4 20 Nordeste 37 Nordeste 0 932.2 -0.7 32
2019-09-07 12:00:00 19 19 Nordeste 36 Nordeste 0 932.5 -0.4 35
2019-09-07 11:00:00 16.5 21 Nordeste 35 Nordeste 0 932.9 0.1 43
2019-09-07 10:00:00 13 24 Nordeste 36 Nordeste 0 932.9 0.4 57
2019-09-07 09:00:00 9.9 19 Nordeste 31 Nordeste 0 932.9 0.5 72
2019-09-07 08:00:00 8 19 Nordeste 29 Nordeste 0 932.8 0.1 80
2019-09-07 07:00:00 8.2 20 Nordeste 34 Nordeste 0 932.5 -0.6 79
2019-09-07 06:00:00 8.4 22 Nordeste 33 Nordeste 0 932.4 -0.6 77
2019-09-07 05:00:00 8.9 22 Nordeste 31 Nordeste 0 932.7 -0.4 74
2019-09-07 04:00:00 9.5 18 Nordeste 36 Nordeste 0 933.1 -0.2 71
2019-09-07 03:00:00 10.5 24 Nordeste 42 Nordeste 0 933 0 66
2019-09-07 02:00:00 11.4 23 Nordeste 37 Nordeste 0 933.1 0.3 61
2019-09-07 01:00:00 12.6 21 Nordeste 36 Nordeste 0 933.3 0.8 55
2019-09-07 00:00:00 14.3 23 Nordeste 35 Nordeste 0 933 1.4 49
2019-09-06 23:00:00 15.9 20 Nordeste 31 Nordeste 0 932.8 1.6 41
2019-09-06 22:00:00 17 17 Nordeste 32 Nordeste 0 932.5 1.4 37
2019-09-06 21:00:00 18.8 19 Nordeste 40 Nordeste 0 931.6 0.5 33
2019-09-06 20:00:00 21.7 23 Nordeste 37 Nordeste 0 931.2 -0.3 25
2019-09-06 19:00:00 24 21 Nordeste 39 Nordeste 0 931.1 -0.9 21
2019-09-06 18:00:00 24.9 22 Nordeste 37 Este 0 931.1 -1.7 21
2019-09-06 17:00:00 25.5 22 Nordeste 43 Nordeste 0 931.5 -1.7 19
2019-09-06 16:00:00 24.8 20 Nordeste 39 Este 0 932 -1.6 23
2019-09-06 15:00:00 23.5 22 Nordeste 38 Este 0 932.8 -1.2 25
2019-09-06 14:00:00 22.3 24 Este 40 Este 0 933.2 -0.8 27
2019-09-06 13:00:00 20 23 Nordeste 43 Nordeste 0 933.6 -0.3 32
2019-09-06 12:00:00 18.4 26 Nordeste 43 Nordeste 0 934 0 37
2019-09-06 11:00:00 16.1 30 Nordeste 45 Nordeste 0 934 0.1 46
2019-09-06 10:00:00 13.8 28 Este 47 Nordeste 0 933.9 0.4 55
2019-09-06 09:00:00 11.1 22 Este 35 Este 0 934 0.5 66
2019-09-06 08:00:00 9.4 20 Nordeste 32 Nordeste 0 933.9 0.3 74
2019-09-06 07:00:00 9.5 21 Nordeste 31 Nordeste 0 933.5 -0.2 76
2019-09-06 06:00:00 10 18 Este 33 Este 0 933.5 -0.4 76
2019-09-06 05:00:00 10.5 19 Este 38 Nordeste 0 933.6 -0.7 74
2019-09-06 04:00:00 11.2 26 Nordeste 43 Nordeste 0 933.7 -0.7 71
2019-09-06 03:00:00 12 26 Nordeste 42 Nordeste 0 933.9 -0.4 68
2019-09-06 02:00:00 12.9 23 Este 39 Nordeste 0 934.3 0.1 65
2019-09-06 01:00:00 13.8 22 Nordeste 36 Este 0 934.4 0.6 59
2019-09-06 00:00:00 14.8 22 Nordeste 36 Nordeste 0 934.3 1.4 54
2019-09-05 23:00:00 15.9 21 Nordeste 40 Este 0 934.2 1.6 49
2019-09-05 22:00:00 17.7 27 Nordeste 41 Nordeste 0 933.8 1.3 41
2019-09-05 21:00:00 19.2 16 Este 41 Este 0 932.9 0.4 30
2019-09-05 20:00:00 21.6 27 Este 42 Este 0 932.6 -0.1 25
2019-09-05 19:00:00 24.3 26 Este 40 Este 0 932.5 -0.9 21
2019-09-05 18:00:00 25.4 27 Este 40 Nordeste 0 932.5 -1.4 15
2019-09-05 17:00:00 25.7 28 Este 45 Nordeste 0 932.7 -1.4 18
2019-09-05 16:00:00 25.3 27 Nordeste 45 Nordeste 0 933.4 -1 20
2019-09-05 15:00:00 25.1 30 Este 50 Nordeste 0 933.9 -0.7 22
2019-09-05 14:00:00 23.9 30 Nordeste 54 Nordeste 0 934.1 -0.4 28
2019-09-05 13:00:00 22.3 31 Este 52 Este 0 934.4 -0.1 34
2019-09-05 12:00:00 20.7 34 Este 53 Este 0 934.6 0.3 39
2019-09-05 11:00:00 19 37 Este 57 Este 0 934.5 0.4 44
2019-09-05 10:00:00 17.1 34 Este 53 Este 0 934.5 1.1 57
2019-09-05 09:00:00 14.7 27 Este 44 Nordeste 0 934.3 1.3 70
2019-09-05 08:00:00 13.4 26 Este 40 Nordeste 0 934.1 1.3 74
2019-09-05 07:00:00 13.9 27 Nordeste 43 Nordeste 0 933.4 0.7 69
2019-09-05 06:00:00 14 27 Nordeste 40 Nordeste 0 933 0.4 62
2019-09-05 05:00:00 14.3 24 Nordeste 49 Nordeste 0 932.8 0.2 58
2019-09-05 04:00:00 14.7 28 Nordeste 45 Nordeste 0 932.7 0.3 59
2019-09-05 03:00:00 14.8 25 Nordeste 42 Nordeste 0 932.6 0.8 64
2019-09-05 02:00:00 16.2 26 Nordeste 39 Este 0 932.6 1.4 60
2019-09-05 01:00:00 17.4 28 Nordeste 48 Nordeste 0 932.4 1.6 57
2019-09-05 00:00:00 20 26 Nordeste 37 Nordeste 0 931.8 1.6 48
2019-09-04 23:00:00 22.2 13 Norte 31 Nordeste 0 931.2 1.1 37
2019-09-04 22:00:00 23.4 8 Norte 16 Norte 0 930.8 0.6 26
2019-09-04 21:00:00 26.4 8 Noroeste 10 Noroeste 0 930.2 -0.1 21
2019-09-04 20:00:00 29.5 5 Nordeste 21 Nordeste 0 930.1 -0.6 14
2019-09-04 19:00:00 31.4 8 Norte 21 Nordeste 0 930.2 -0.9 14
2019-09-04 18:00:00 32.4 10 Norte 26 Noroeste 0 930.3 -1.3 13
2019-09-04 17:00:00 33.6 6 Noroeste 24 Oeste 0 930.7 -1.3 13
2019-09-04 16:00:00 32.7 5 Sur 17 Oeste 0 931.1 -1.3 14
2019-09-04 15:00:00 32.7 8 Noroeste 16 Noroeste 0 931.6 -1.3 17
2019-09-04 14:00:00 32.2 8 Oeste 19 Noroeste 0 932 -1 19
2019-09-04 13:00:00 29.5 8 Norte 18 Norte 0 932.4 -0.5 26
2019-09-04 12:00:00 27.9 7 Noroeste 15 Noroeste 0 932.9 0.1 28
2019-09-04 11:00:00 25.5 6 Noroeste 12 Noroeste 0 933 0.5 31
2019-09-04 10:00:00 21.1 2 Sudoeste 4 Sudoeste 0 932.9 0.8 41
2019-09-04 09:00:00 16.3 0 Calma 5 Sudoeste 0 932.8 0.7 54
2019-09-04 08:00:00 13.3 3 Sudoeste 5 Sudoeste 0 932.5 0.3 60
2019-09-04 07:00:00 13.5 2 Nordeste 3 Este 0 932.1 -0.3 59
2019-09-04 06:00:00 14.2 3 Este 4 Oeste 0 932.1 -0.7 56
2019-09-04 05:00:00 14.6 4 Sudoeste 6 Oeste 0 932.2 -0.6 54
2019-09-04 04:00:00 15.1 2 Sur 4 Sur 0 932.4 -0.3 54
2019-09-04 03:00:00 16.2 3 Este 15 Noroeste 0 932.8 -0.1 50
2019-09-04 02:00:00 17.1 2 Sur 10 Sudoeste 0 932.8 -0.4 48
2019-09-04 01:00:00 18.4 5 Este 7 Nordeste 0 932.7 -0.3 42
2019-09-04 00:00:00 19.4 5 Este 6 Este 0 932.9 0.3 39
2019-09-03 23:00:00 21.3 4 Nordeste 9 Norte 0 933.2 0.8 33
2019-09-03 22:00:00 23 7 Norte 11 Noroeste 0 933 0.6 29
2019-09-03 21:00:00 25.9 8 Noroeste 14 Oeste 0 932.6 -0.1 24
2019-09-03 20:00:00 29.6 8 Oeste 31 Noroeste 0 932.4 -0.6 19
2019-09-03 19:00:00 32.1 10 Oeste 25 Noroeste 0 932.4 -1 15
2019-09-03 18:00:00 32.9 10 Oeste 23 Oeste 0 932.7 -1.3 15
2019-09-03 17:00:00 32.2 7 Oeste 27 Norte 0 933 -1.3 17
2019-09-03 16:00:00 31 9 Nordeste 18 Nordeste 0 933.4 -1.4 20
2019-09-03 15:00:00 29.1 7 Nordeste 22 Este 0 934 -1.1 23
2019-09-03 14:00:00 27.5 10 Nordeste 24 Este 0 934.3 -0.7 25
2019-09-03 13:00:00 25.7 12 Nordeste 26 Nordeste 0 934.8 -0.1 29
2019-09-03 12:00:00 22.4 14 Nordeste 23 Este 0 935.1 0.6 35
2019-09-03 11:00:00 19.1 15 Nordeste 24 Este 0 935 1 46
2019-09-03 10:00:00 15.5 16 Nordeste 25 Nordeste 0 934.9 1.3 58
2019-09-03 09:00:00 12.5 18 Nordeste 26 Nordeste 0 934.5 1.2 69
2019-09-03 08:00:00 10.8 15 Nordeste 24 Nordeste 0 934 0.5 76
2019-09-03 07:00:00 11.4 15 Nordeste 28 Nordeste 0 933.6 0.2 73
2019-09-03 06:00:00 12.1 18 Nordeste 28 Nordeste 0 933.3 -0.4 71
2019-09-03 05:00:00 13.1 18 Nordeste 32 Nordeste 0 933.5 0.2 66
2019-09-03 04:00:00 14.1 19 Nordeste 28 Nordeste 0 933.4 0.4 60
2019-09-03 03:00:00 15.7 15 Nordeste 31 Nordeste 0 933.7 1.1 53
2019-09-03 02:00:00 17.4 19 Nordeste 32 Nordeste 0 933.3 1.1 46
2019-09-03 01:00:00 18.9 19 Nordeste 31 Este 0 933 1.4 40
2019-09-03 00:00:00 20 21 Nordeste 30 Nordeste 0 932.6 1.6 37
2019-09-02 23:00:00 21 17 Nordeste 24 Nordeste 0 932.2 1.6 34
2019-09-02 22:00:00 22.5 17 Nordeste 26 Nordeste 0 931.6 1.2 31
2019-09-02 21:00:00 24.2 15 Nordeste 30 Nordeste 0 931 0.6 29
2019-09-02 20:00:00 26.7 19 Nordeste 32 Nordeste 0 930.6 0.1 27
2019-09-02 19:00:00 29.3 16 Nordeste 31 Nordeste 0 930.4 -0.6 27
2019-09-02 18:00:00 29.8 15 Nordeste 29 Este 0 930.4 -1 26
2019-09-02 17:00:00 29.9 15 Nordeste 29 Nordeste 0 930.5 -1.3 27
2019-09-02 16:00:00 29.3 18 Este 33 Nordeste 0 931 -1.2 27
2019-09-02 15:00:00 28 18 Nordeste 35 Este 0 931.4 -0.7 29
2019-09-02 14:00:00 26.1 19 Nordeste 38 Nordeste 0 931.8 -0.2 33
2019-09-02 13:00:00 23.8 21 Nordeste 36 Nordeste 0 932.2 0.4 39
2019-09-02 12:00:00 21.5 23 Nordeste 40 Nordeste 0 932.1 0.7 46
2019-09-02 11:00:00 18.8 24 Nordeste 39 Nordeste 0 932 1.1 54
2019-09-02 10:00:00 16.1 23 Nordeste 42 Este 0 931.8 1.4 64
2019-09-02 09:00:00 13.7 21 Nordeste 36 Nordeste 0 931.4 1.5 73
2019-09-02 08:00:00 12.3 19 Nordeste 36 Nordeste 0 930.9 1.2 79
2019-09-02 07:00:00 12.5 20 Nordeste 37 Nordeste 0 930.4 0.4 77
2019-09-02 06:00:00 13 22 Nordeste 40 Nordeste 0 929.9 -0.1 77
2019-09-02 05:00:00 13.3 26 Nordeste 48 Nordeste 0 929.7 -0.2 77
2019-09-02 04:00:00 13.9 30 Nordeste 46 Nordeste 0 930 0.9 77
2019-09-02 03:00:00 15.1 29 Nordeste 48 Nordeste 0 930 1.1 75
2019-09-02 02:00:00 17 28 Nordeste 45 Nordeste 0 929.9 1.6 68
2019-09-02 01:00:00 19.3 24 Nordeste 38 Nordeste 0 929.1 1.2 59
2019-09-02 00:00:00 21.2 25 Nordeste 39 Nordeste 0 928.9 1.6 48
2019-09-01 23:00:00 21.6 8 Norte 14 Nordeste 0 928.3 1.3 33
2019-09-01 22:00:00 22.6 8 Norte 12 Nordeste 0 927.9 0.9 31
2019-09-01 21:00:00 25.3 7 Norte 17 Oeste 0 927.3 0.3 26
2019-09-01 20:00:00 28.6 12 Oeste 23 Oeste 0 927 -0.4 22
2019-09-01 19:00:00 31.4 14 Oeste 27 Oeste 0 927 -1 20
2019-09-01 18:00:00 31.4 10 Oeste 25 Noroeste 0 927 -1.4 20
2019-09-01 17:00:00 32.1 10 Oeste 22 Noroeste 0 927.4 -1.4 21
2019-09-01 16:00:00 31.3 6 Oeste 20 Sudoeste 0 928 -1.2 25
2019-09-01 15:00:00 28.8 7 Este 26 Norte 0 928.4 -1.2 32
2019-09-01 14:00:00 27.4 11 Norte 19 Nordeste 0 928.8 -0.7 39
2019-09-01 13:00:00 26.2 5 Norte 18 Este 0 929.2 0.5 42
2019-09-01 12:00:00 23.1 7 Nordeste 19 Nordeste 0 929.6 0.6 54
2019-09-01 11:00:00 21.7 11 Nordeste 22 Nordeste 0 929.5 0.9 60
2019-09-01 10:00:00 18.1 14 Nordeste 25 Nordeste 0 928.7 0.3 76
2019-09-01 09:00:00 16.3 6 Nordeste 15 Nordeste 0 929 0.7 81
2019-09-01 08:00:00 14.4 3 Noroeste 8 Oeste 0 928.6 0.1 86
2019-09-01 07:00:00 14.6 4 Oeste 9 Sudeste 0 928.4 -0.5 83
2019-09-01 06:00:00 15.6 3 Sur 12 Nordeste 0 928.3 -1 80
2019-09-01 05:00:00 15.6 4 Sudeste 9 Nordeste 0 928.5 -1 78
2019-09-01 04:00:00 16.4 3 Sur 7 Sudoeste 0 928.9 -0.4 75
2019-09-01 03:00:00 17 4 Sudoeste 7 Sudoeste 0 929.3 0.1 67
2019-09-01 02:00:00 18 3 Sur 9 Oeste 0 929.5 0.5 59
2019-09-01 01:00:00 18.7 8 Oeste 10 Oeste 0 929.3 0.7 55
2019-09-01 00:00:00 19.9 6 Oeste 13 Oeste 0 929.2 1.2 51
2019-08-31 23:00:00 21.5 9 Oeste 14 Oeste 0 929 1.1 46
2019-08-31 22:00:00 24 12 Oeste 21 Oeste 0 928.6 0.8 39
2019-08-31 21:00:00 26.6 12 Oeste 27 Oeste 0 928 0.5 31
2019-08-31 20:00:00 30.2 20 Oeste 39 Oeste 0 927.9 0 24
2019-08-31 19:00:00 33.1 22 Oeste 40 Oeste 0 927.8 -0.6 19
2019-08-31 18:00:00 33.8 22 Oeste 37 Sudoeste 0 927.5 -1.6 19
2019-08-31 17:00:00 35.4 22 Oeste 37 Oeste 0 927.9 -1.7 17
2019-08-31 16:00:00 34.5 16 Oeste 31 Oeste 0 928.4 -1.5 19
2019-08-31 15:00:00 34.6 18 Sudoeste 36 Sudoeste 0 929.1 -1.1 18
2019-08-31 14:00:00 33.7 13 Oeste 21 Sudoeste 0 929.6 -0.9 19
2019-08-31 13:00:00 31 7 Sur 18 Sudoeste 0 929.9 -0.4 27
2019-08-31 12:00:00 28.8 7 Sur 18 Sudoeste 0 930.2 0 28
2019-08-31 11:00:00 26.8 5 Sur 9 Sur 0 930.5 0.6 31
2019-08-31 10:00:00 23.1 5 Sur 8 Sudoeste 0 930.3 0.4 45
2019-08-31 09:00:00 19.2 4 Sur 7 Sudeste 0 930.2 0.2 57
2019-08-31 08:00:00 16 4 Sur 8 Sur 0 929.9 -0.4 65
2019-08-31 07:00:00 15.8 4 Sur 7 Sur 0 929.9 -0.7 66
2019-08-31 06:00:00 16.5 3 Sur 7 Sur 0 930 -0.7 64
2019-08-31 05:00:00 16.7 3 Sudeste 9 Sudoeste 0 930.3 -0.5 63
2019-08-31 04:00:00 17.5 4 Sur 9 Sur 0 930.6 -0.3 61
2019-08-31 03:00:00 18.2 4 Sudoeste 10 Sur 0 930.7 -0.3 59
2019-08-31 02:00:00 19.6 3 Oeste 10 Noroeste 0 930.8 -0.5 52
2019-08-31 01:00:00 20 2 Noroeste 6 Sudoeste 0 930.9 -0.1 51
2019-08-31 00:00:00 21.3 3 Sudoeste 9 Sur 0 931 0.6 47
2019-08-30 23:00:00 22.9 4 Sur 14 Oeste 0 931.3 1.1 43
2019-08-30 22:00:00 24.4 9 Oeste 25 Sudeste 0 931 1 39
2019-08-30 21:00:00 26.6 13 Sudeste 32 Este 0 930.4 0.3 30
2019-08-30 20:00:00 31.1 6 Noroeste 20 Norte 0 930.2 -0.3 22
2019-08-30 19:00:00 32.7 14 Oeste 28 Oeste 0 930 -0.9 20
2019-08-30 18:00:00 34.8 10 Oeste 38 Oeste 0 930.1 -1.5 18
2019-08-30 17:00:00 35.3 14 Oeste 26 Oeste 0 930.5 -1.6 17
2019-08-30 16:00:00 35.3 17 Oeste 33 Oeste 0 930.9 -1.8 19
2019-08-30 15:00:00 34 18 Sudoeste 28 Oeste 0 931.6 -1.3 18
2019-08-30 14:00:00 33.9 14 Sudoeste 31 Oeste 0 932.1 -0.7 19
2019-08-30 13:00:00 32.6 9 Sudoeste 21 Sudoeste 0 932.7 -0.1 22
2019-08-30 12:00:00 29.9 7 Sur 16 Sur 0 932.9 0.2 23
2019-08-30 11:00:00 26.4 6 Este 12 Este 0 932.8 0.3 45
2019-08-30 10:00:00 21.6 4 Norte 9 Norte 0 932.8 0.5 56
2019-08-30 09:00:00 17.9 3 Norte 9 Noroeste 0 932.7 0.4 74
2019-08-30 08:00:00 16.1 4 Nordeste 14 Sudeste 0 932.5 0.2 73
2019-08-30 07:00:00 17 6 Sudeste 12 Sudeste 0 932.3 -0.2 69
2019-08-30 06:00:00 16.2 3 Sudeste 6 Sur 0 932.3 -0.3 73
2019-08-30 05:00:00 16.5 3 Sur 6 Sudeste 0 932.3 -0.1 69
2019-08-30 04:00:00 17 4 Sur 7 Sur 0 932.5 0 66
2019-08-30 03:00:00 17.4 2 Sur 4 Sur 0 932.6 0.2 61
2019-08-30 02:00:00 18 3 Sudeste 4 Sur 0 932.4 0.3 56
2019-08-30 01:00:00 19.2 0 Calma 7 Sudoeste 0 932.5 0.8 49
2019-08-30 00:00:00 19.7 5 Oeste 13 Oeste 0 932.4 1.3 45
2019-08-29 23:00:00 20.9 10 Oeste 13 Oeste 0 932.1 1.3 38
2019-08-29 22:00:00 23.2 9 Oeste 11 Oeste 0 931.7 1.1 32
2019-08-29 21:00:00 26.8 9 Oeste 17 Oeste 0 931.1 0.6 25
2019-08-29 20:00:00 30.7 14 Oeste 26 Sudoeste 0 930.8 0.2 15
2019-08-29 19:00:00 32.3 15 Sudoeste 32 Sudoeste 0 930.6 -0.3 14
2019-08-29 18:00:00 34.2 14 Oeste 33 Oeste 0 930.5 -0.8 17
2019-08-29 17:00:00 34.1 8 Noroeste 30 Oeste 0 930.6 -1 20
2019-08-29 16:00:00 34.9 17 Oeste 32 Oeste 0 930.9 -0.9 20
2019-08-29 15:00:00 33.9 13 Sudoeste 28 Oeste 0 931.3 -0.5 20
2019-08-29 14:00:00 33.1 17 Sudoeste 32 Sudoeste 0 931.6 -0.1 17
2019-08-29 13:00:00 30.6 15 Sudoeste 28 Sudoeste 0 931.8 0 22
2019-08-29 12:00:00 28 8 Sur 18 Sudeste 0 931.8 0.4 33
2019-08-29 11:00:00 25.3 6 Este 12 Este 0 931.7 0.6 51
2019-08-29 10:00:00 22.5 5 Este 10 Este 0 931.8 0.9 61
2019-08-29 09:00:00 18.3 2 Este 5 Sudeste 0 931.4 0.5 83
2019-08-29 08:00:00 15.8 3 Este 8 Sudeste 0 931.1 0.2 85
2019-08-29 07:00:00 16 4 Sudeste 8 Sudeste 0 930.9 -0.2 86
2019-08-29 06:00:00 15.9 2 Sudeste 8 Sur 0 930.9 -0.1 84
2019-08-29 05:00:00 16.4 0 Calma 8 Sudeste 0 930.9 -0.1 82
2019-08-29 04:00:00 16.8 2 Sur 4 Sur 0 931.1 0.4 78
2019-08-29 03:00:00 17.8 3 Sudoeste 6 Oeste 0 931 0.2 76
2019-08-29 02:00:00 18.3 2 Sur 7 Oeste 0 931 0.9 72
2019-08-29 01:00:00 19.1 5 Oeste 13 Oeste 0 930.7 1 66
2019-08-29 00:00:00 20.7 6 Sudoeste 13 Sudoeste 0 930.8 1.7 57
2019-08-28 23:00:00 22.1 7 Oeste 15 Oeste 0 930.1 1.2 49
2019-08-28 22:00:00 24.2 6 Sudoeste 9 Sudoeste 0 929.7 0.7 42
2019-08-28 21:00:00 27.1 6 Oeste 18 Sudoeste 0 929.1 0.1 36
2019-08-28 20:00:00 29.6 10 Sudoeste 31 Sudoeste 0 928.9 -0.4 27
2019-08-28 19:00:00 31 12 Sudoeste 26 Oeste 0 929 -0.6 25
2019-08-28 18:00:00 31.3 8 Sudoeste 30 Sudoeste 0 929 -1 26
2019-08-28 17:00:00 31.9 12 Sur 23 Sudoeste 0 929.3 -1.1 25
2019-08-28 16:00:00 32.1 10 Oeste 22 Sudoeste 0 929.6 -1.1 25
2019-08-28 15:00:00 32.2 14 Oeste 26 Oeste 0 930 -0.8 27
2019-08-28 14:00:00 30.4 14 Sudoeste 25 Sudoeste 0 930.4 -0.3 29
2019-08-28 13:00:00 29 12 Sudoeste 22 Sudoeste 0 930.7 0 34
2019-08-28 12:00:00 26.4 7 Sur 13 Sur 0 930.8 0.3 41
2019-08-28 11:00:00 24.1 5 Sudoeste 9 Sudoeste 0 930.7 0.4 53
2019-08-28 10:00:00 21 4 Sur 8 Sur 0 930.7 0.5 71
2019-08-28 09:00:00 17.8 3 Sudeste 5 Sudeste 0 930.5 0.4 84
2019-08-28 08:00:00 15 2 Sur 5 Sudeste 0 930.3 0.1 89
2019-08-28 07:00:00 15.5 4 Sur 8 Sur 0 930.2 -0.1 89
2019-08-28 06:00:00 15.2 3 Sur 7 Sur 0 930.1 -0.1 87
2019-08-28 05:00:00 15.7 4 Sur 7 Sur 0 930.2 -0.3 86
2019-08-28 04:00:00 15.7 3 Sur 7 Sur 0 930.3 -0.2 80
2019-08-28 03:00:00 16.4 0 Calma 6 Sudoeste 0 930.2 0.1 76
2019-08-28 02:00:00 16.8 2 Sur 5 Noroeste 0 930.5 0.7 73
2019-08-28 01:00:00 17.5 5 Noroeste 12 Oeste 0 930.5 1 68
2019-08-28 00:00:00 18.6 10 Oeste 19 Oeste 0 930.1 1.2 64
2019-08-27 23:00:00 20 5 Noroeste 8 Noroeste 0 929.8 1.1 55
2019-08-27 22:00:00 21.8 6 Noroeste 12 Noroeste 0 929.5 0.9 46
2019-08-27 21:00:00 24.4 7 Noroeste 14 Oeste 0 928.9 0.4 40
2019-08-27 20:00:00 26.9 10 Noroeste 16 Noroeste 0 928.7 0 33
2019-08-27 19:00:00 28.7 8 Oeste 18 Oeste 0 928.6 -0.3 29
2019-08-27 18:00:00 29.6 13 Oeste 24 Sur 0 928.5 -0.7 29
2019-08-27 17:00:00 27.1 6 Sudoeste 16 Noroeste 0 928.7 -0.6 34
2019-08-27 16:00:00 27.9 8 Norte 19 Noroeste 0 928.9 -0.9 34
2019-08-27 15:00:00 25.9 6 Oeste 33 Sudoeste 0 929.2 -0.7 39
2019-08-27 14:00:00 27.5 9 Oeste 19 Oeste 0 929.3 -0.6 41
2019-08-27 13:00:00 25.6 8 Oeste 18 Oeste 0 929.8 0.2 44
2019-08-27 12:00:00 23.7 8 Oeste 15 Oeste 0 929.9 0.9 54
2019-08-27 11:00:00 20.7 5 Oeste 10 Oeste 0 929.9 1.1 68
2019-08-27 10:00:00 17.9 5 Sur 9 Sur 0 929.6 1.3 80
2019-08-27 09:00:00 15.3 3 Sudeste 5 Sur 0 929 1.2 91
2019-08-27 08:00:00 13.3 3 Sudeste 9 Nordeste 0 928.8 1 92
2019-08-27 07:00:00 13.4 2 Este 9 Nordeste 0 928.3 0.5 92
2019-08-27 06:00:00 13.7 4 Sur 7 Sur 0 927.8 0 90
2019-08-27 05:00:00 14.1 4 Sur 8 Sudoeste 0 927.8 -0.6 90
2019-08-27 04:00:00 14.3 4 Sudoeste 8 Sudoeste 0 927.8 -0.5 87
2019-08-27 03:00:00 15 2 Sur 6 Sur 0 927.8 -0.6 85
2019-08-27 02:00:00 15.8 3 Este 5 Sur 0 928.4 0.9 85
2019-08-27 01:00:00 16.3 4 Sudoeste 6 Sudoeste 0 928.3 0.2 84
2019-08-27 00:00:00 15.9 3 Oeste 11 Oeste 0 928.4 1.2 79
2019-08-26 23:00:00 16.4 11 Oeste 16 Oeste 0 927.5 0.8 77
2019-08-26 22:00:00 18.2 5 Sudoeste 10 Sudeste 0 928.1 1.1 68
2019-08-26 21:00:00 20.7 3 Oeste 14 Oeste 0 927.2 0 57
2019-08-26 20:00:00 22.3 14 Oeste 26 Oeste 0 926.7 -0.5 53
2019-08-26 19:00:00 24.9 17 Oeste 24 Oeste 0 927 -0.8 46
2019-08-26 18:00:00 25.1 9 Oeste 22 Oeste 0 927.2 -1.1 45
2019-08-26 17:00:00 25.1 5 Noroeste 14 Nordeste 0 927.2 -1.1 40
2019-08-26 16:00:00 23.9 6 Nordeste 14 Nordeste 0 927.8 -1 47
2019-08-26 15:00:00 22 8 Nordeste 19 Norte 0 928.3 -0.7 61
2019-08-26 14:00:00 19.4 11 Nordeste 21 Norte 0 928.3 -0.1 78
2019-08-26 13:00:00 18.6 4 Oeste 12 Sur 0.2 928.8 0.4 80
2019-08-26 12:00:00 16.9 3 Sur 10 Este 0.4 929 0.9 85
2019-08-26 11:00:00 16.8 5 Sudeste 21 Sur 0.2 928.4 2.4 83
2019-08-26 10:00:00 16.3 14 Sur 57 Sudoeste 0.4 928.4 1.9 79
2019-08-26 09:00:00 15.3 17 Este 49 Este 0 928.1 0.5 84
2019-08-26 08:00:00 15.5 35 Este 55 Este 0.2 926 -2.8 80
2019-08-26 07:00:00 15.7 26 Este 43 Este 1 926.5 -1.2 89
2019-08-26 06:00:00 15.8 26 Nordeste 36 Nordeste 3.2 927.6 -1 87
2019-08-26 05:00:00 16.2 4 Norte 30 Nordeste 1.2 928.8 0 89
2019-08-26 04:00:00 16.1 19 Nordeste 28 Nordeste 0 927.7 -1.8 90
2019-08-26 03:00:00 16.1 16 Nordeste 35 Nordeste 0.8 928.6 -0.8 90
2019-08-26 02:00:00 16.2 14 Nordeste 28 Nordeste 1.4 928.8 0.3 87
2019-08-26 01:00:00 16.5 13 Este 20 Nordeste 0.6 929.5 1.9 86
2019-08-26 00:00:00 16.6 5 Sudeste 22 Nordeste 0 929.4 1 83
2019-08-25 23:00:00 16.4 19 Nordeste 33 Nordeste 0 928.5 0.7 82
2019-08-25 22:00:00 16.4 20 Norte 37 Norte 0.8 927.6 -0.9 84
2019-08-25 21:00:00 17.6 16 Nordeste 31 Norte 0.8 928.4 0.7 81
2019-08-25 20:00:00 18.1 18 Norte 34 Norte 0.2 927.8 1.6 78
2019-08-25 19:00:00 18.9 10 Nordeste 28 Norte 5 928.5 1.8 78
2019-08-25 18:00:00 22.1 17 Norte 34 Nordeste 3 927.7 0.4 65
2019-08-25 17:00:00 29.7 15 Noroeste 25 Norte 0 926.2 -1.7 25
2019-08-25 16:00:00 32.9 6 Noroeste 24 Oeste 0 926.7 -1.4 19
2019-08-25 15:00:00 31.5 8 Noroeste 19 Noroeste 0 927.3 -1.2 21
2019-08-25 14:00:00 33.3 12 Oeste 24 Oeste 0 927.9 -0.6 20
2019-08-25 13:00:00 31.2 6 Sudoeste 20 Oeste 0 928.1 -0.2 25
2019-08-25 12:00:00 30.7 13 Oeste 22 Oeste 0 928.5 0.1 26
2019-08-25 11:00:00 28.3 4 Sudoeste 10 Este 0 928.5 0.1 30
2019-08-25 10:00:00 22.5 7 Nordeste 13 Nordeste 0 928.3 0.1 44
2019-08-25 09:00:00 18.7 2 Sudeste 4 Sudoeste 0 928.4 0 58
2019-08-25 08:00:00 17.6 3 Sur 8 Sudoeste 0 928.4 -0.2 61
2019-08-25 07:00:00 17.2 4 Este 6 Este 0 928.2 -0.7 61
2019-08-25 06:00:00 17.4 2 Sur 4 Sudoeste 0 928.4 -0.8 58
2019-08-25 05:00:00 18 2 Sur 5 Sudeste 0 928.6 -0.8 55
2019-08-25 04:00:00 18.6 4 Sudoeste 5 Sudoeste 0 928.9 -0.6 52
2019-08-25 03:00:00 19.2 5 Sur 7 Sur 0 929.2 -0.5 52
2019-08-25 02:00:00 20.1 0 Calma 9 Noroeste 0 929.4 -0.5 47
2019-08-25 01:00:00 21.5 7 Oeste 12 Noroeste 0 929.5 0.3 43
2019-08-25 00:00:00 22.9 8 Noroeste 12 Noroeste 0 929.7 1 38
2019-08-24 23:00:00 24.3 5 Noroeste 19 Noroeste 0 929.9 1.4 34
2019-08-24 22:00:00 26.6 12 Noroeste 19 Noroeste 0 929.2 0.5 29
2019-08-24 21:00:00 29.2 12 Noroeste 21 Noroeste 0 928.7 -0.4 24
2019-08-24 20:00:00 32 13 Noroeste 22 Noroeste 0 928.5 -0.9 19
2019-08-24 19:00:00 33.2 4 Sudeste 24 Noroeste 0 928.7 -1.1 15
2019-08-24 18:00:00 36.2 20 Oeste 35 Oeste 0 929.1 -1.3 14
2019-08-24 17:00:00 36.5 9 Oeste 24 Oeste 0 929.4 -1.4 14
2019-08-24 16:00:00 34.9 11 Sur 28 Sudoeste 0 929.8 -1.5 13
2019-08-24 15:00:00 35.4 10 Sudoeste 27 Sudoeste 0 930.4 -1.2 14
2019-08-24 14:00:00 33.8 7 Sur 25 Oeste 0 930.8 -0.7 18
2019-08-24 13:00:00 30.7 6 Sudoeste 11 Sudoeste 0 931.3 -0.2 21
2019-08-24 12:00:00 30 6 Sur 12 Sur 0 931.6 0.6 23
2019-08-24 11:00:00 26.9 4 Este 13 Nordeste 0 931.5 0.5 29
2019-08-24 10:00:00 24.7 7 Noroeste 10 Noroeste 0 931.5 0.8 35
2019-08-24 09:00:00 19.5 0 Calma 4 Sudoeste 0 931 0.3 52
2019-08-24 08:00:00 15.9 0 Calma 8 Sur 0 931 0.1 60
2019-08-24 07:00:00 16.8 5 Sur 9 Sudeste 0 930.7 0.1 58
2019-08-24 06:00:00 17 3 Sur 5 Sudeste 0 930.7 0 57
2019-08-24 05:00:00 18 4 Este -- -- -- 930.9 -0.1 52
2019-08-24 04:00:00 19.7 10 Noroeste 17 Noroeste 0 930.6 -0.4 47
2019-08-24 03:00:00 20.4 13 Noroeste 17 Noroeste 0 930.7 0.2 44
2019-08-24 02:00:00 21.1 9 Noroeste 13 Oeste 0 931 0.6 41
2019-08-24 01:00:00 22.8 3 Oeste 14 Noroeste 0 931 1.1 35
2019-08-24 00:00:00 24.2 10 Noroeste 18 Noroeste 0 930.5 1 31
2019-08-23 23:00:00 23.9 11 Oeste 17 Oeste 0 930.4 1 26
2019-08-23 22:00:00 26.3 4 Nordeste 7 Norte 0 929.9 0.2 23
2019-08-23 21:00:00 29.5 2 Noroeste 9 Norte 0 929.5 -0.4 18
2019-08-23 20:00:00 33.1 5 Noroeste 14 Oeste 0 929.4 -0.9 14
2019-08-23 19:00:00 33.5 12 Oeste 18 Noroeste 0 929.7 -0.9 14
2019-08-23 18:00:00 34.1 6 Noroeste 20 Norte 0 929.9 -1.3 12
2019-08-23 17:00:00 35.2 13 Oeste 24 Oeste 0 930.3 -1.3 12
2019-08-23 16:00:00 34.9 14 Noroeste 23 Noroeste 0 930.6 -1.4 12
2019-08-23 15:00:00 34 4 Norte 18 Sudoeste 0 931.2 -1.1 13
2019-08-23 14:00:00 34.8 8 Oeste 18 Oeste 0 931.6 -0.8 13
2019-08-23 13:00:00 32.1 5 Sudeste 15 Sudeste 0 932 -0.3 13
2019-08-23 12:00:00 30.6 12 Este 21 Este 0 932.3 0.2 12
2019-08-23 11:00:00 27 8 Este 17 Este 0 932.4 0.9 18
2019-08-23 10:00:00 22.1 10 Este 17 Este 0 932.3 1 26
2019-08-23 09:00:00 17.9 7 Sudeste 21 Nordeste 0 932.1 0.9 32
2019-08-23 08:00:00 15.4 17 Nordeste 24 Nordeste 0 931.5 0.4 37
2019-08-23 07:00:00 15.5 15 Nordeste 24 Nordeste 0 931.3 0.1 30
2019-08-23 06:00:00 15.8 11 Nordeste 18 Nordeste 0 931.2 -0.2 26
2019-08-23 05:00:00 17.4 14 Este 21 Este 0 931.1 -0.4 22
2019-08-23 04:00:00 17.8 11 Nordeste 17 Este 0 931.2 -0.4 22
2019-08-23 03:00:00 19.4 13 Este 20 Este 0 931.4 -0.4 20
2019-08-23 02:00:00 19.5 13 Este 21 Este 0 931.5 -0.2 24
2019-08-23 01:00:00 19.6 11 Este 17 Este 0 931.6 0.3 29
2019-08-23 00:00:00 20.3 9 Nordeste 15 Este 0 931.8 0.7 31
2019-08-22 23:00:00 21.6 7 Este 13 Nordeste 0 931.7 0.8 29
2019-08-22 22:00:00 24.2 9 Nordeste 13 Nordeste 0 931.3 0.2 26
2019-08-22 21:00:00 27.3 8 Nordeste 21 Nordeste 0 931.1 -0.3 19
2019-08-22 20:00:00 30.1 12 Nordeste 23 Este 0 930.9 -0.8 15
2019-08-22 19:00:00 31.7 15 Este 24 Nordeste 0 931.1 -1 15
2019-08-22 18:00:00 32.7 8 Sudeste 23 Este 0 931.4 -1.2 15
2019-08-22 17:00:00 32.5 6 Este 24 Este 0 931.7 -1.2 16
2019-08-22 16:00:00 32 15 Nordeste 27 Nordeste 0 932.1 -1.5 16
2019-08-22 15:00:00 31.7 7 Nordeste 30 Nordeste 0 932.6 -1.3 19
2019-08-22 14:00:00 31.1 17 Este 27 Nordeste 0 932.9 -0.9 23
2019-08-22 13:00:00 28 14 Este 27 Este 0 933.6 0 32
2019-08-22 12:00:00 25.2 11 Nordeste 24 Nordeste 0 933.9 0.5 41
2019-08-22 11:00:00 22.8 15 Este 26 Nordeste 0 933.8 0.9 48
2019-08-22 10:00:00 19.2 17 Nordeste 27 Nordeste 0 933.6 1.4 58
2019-08-22 09:00:00 15.9 15 Nordeste 27 Nordeste 0 933.4 1 71
2019-08-22 08:00:00 14.2 15 Nordeste 29 Nordeste 0 932.9 0.4 80
2019-08-22 07:00:00 14.6 18 Nordeste 30 Nordeste 0 932.2 -0.1 79
2019-08-22 06:00:00 15.5 17 Nordeste 25 Nordeste 0 932.4 0.2 75
2019-08-22 05:00:00 16.6 13 Nordeste 22 Nordeste 0 932.5 0.3 64
2019-08-22 04:00:00 18.8 12 Nordeste 21 Este 0 932.3 0.1 46
2019-08-22 03:00:00 18.8 13 Este 22 Este 0 932.2 0.3 48
2019-08-22 02:00:00 19 5 Este 9 Este 0 932.2 0.6 47
2019-08-22 01:00:00 19.5 8 Este 16 Este 0 932.2 1.1 45
2019-08-22 00:00:00 20.8 8 Nordeste 11 Nordeste 0 931.9 1.1 42
2019-08-21 23:00:00 22.6 8 Norte 12 Norte 0 931.6 1.2 35
2019-08-21 22:00:00 23.7 6 Norte 8 Nordeste 0 931.1 0.6 35
2019-08-21 21:00:00 26.8 7 Noroeste 12 Noroeste 0 930.8 0.2 29
2019-08-21 20:00:00 29.9 9 Oeste 15 Oeste 0 930.4 -0.4 23
2019-08-21 19:00:00 30 12 Oeste 21 Noroeste 0 930.5 -0.8 24
2019-08-21 18:00:00 32.5 12 Oeste 24 Noroeste 0 930.6 -1.2 22
2019-08-21 17:00:00 30.6 6 Norte 22 Nordeste 0 930.8 -1.2 26
2019-08-21 16:00:00 29.3 8 Nordeste 20 Norte 0 931.3 -1.2 28
2019-08-21 15:00:00 28.6 9 Norte 19 Este 0 931.8 -0.8 30
2019-08-21 14:00:00 26.5 9 Este 20 Nordeste 0 932 -0.3 34
2019-08-21 13:00:00 23.6 6 Nordeste 19 Nordeste 0 932.5 0.1 42
2019-08-21 12:00:00 20.2 10 Nordeste 21 Nordeste 0 932.6 0.4 51
2019-08-21 11:00:00 18.2 13 Nordeste 21 Nordeste 0 932.3 0.2 56
2019-08-21 10:00:00 16.7 16 Nordeste 23 Nordeste 0 932.4 0.8 61
2019-08-21 09:00:00 15 12 Nordeste 26 Nordeste 0 932.2 0.4 68
2019-08-21 08:00:00 13.2 14 Nordeste 24 Nordeste 0 932.1 0.3 75
2019-08-21 07:00:00 13.3 15 Nordeste 23 Nordeste 0 931.6 -0.1 74
2019-08-21 06:00:00 13.7 12 Nordeste 25 Nordeste 0 931.8 0 71
2019-08-21 05:00:00 14.3 15 Nordeste 29 Nordeste 0 931.8 -0.2 67
2019-08-21 04:00:00 14.8 18 Nordeste 29 Nordeste 0 931.7 -0.5 62
2019-08-21 03:00:00 15.6 18 Nordeste 28 Nordeste 0 931.8 -0.4 57
2019-08-21 02:00:00 16.2 15 Nordeste 26 Nordeste 0 932 0 53
2019-08-21 01:00:00 17.3 18 Nordeste 28 Nordeste 0 932.2 0.7 50
2019-08-21 00:00:00 18.5 19 Nordeste 33 Nordeste 0 932.2 1.1 45